Tapestry Institutional Ownership (NYSE:TPR)

$25.14
-0.13 (-0.51 %)
(As of 09/22/2019 04:00 PM ET)
Today's Range
$25.11
Now: $25.14
$25.8950
50-Day Range
$19.4132
MA: $23.86
$29.75
52-Week Range
$18.54
Now: $25.14
$51.29
Volume8.83 million shs
Average Volume6.46 million shs
Market Capitalization$7.21 billion
P/E Ratio9.78
Dividend Yield5.34%
Beta0.98

Institutional Ownership

Institutional Ownership Changes (13F Filings) for Tapestry (NYSE:TPR)

Institutional Ownership Percentage: 88.52%

Tapestry (NYSE TPR) Institutional Buying and Selling

Reporting DateHedge FundShares HeldMarket Value% of PortfolioQuarterly Change in SharesOwnership in Company
9/6/2019BRITISH COLUMBIA INVESTMENT MANAGEMENT Corp220,889$7.01M0.1%+12.4%0.077%
9/3/2019Stonehage Fleming Financial Services Holdings Ltd26,900$0.85M0.0%N/A0.009%
8/28/2019ANTIPODES PARTNERS Ltd4,397,123$139.52M0.6%+7.8%1.533%
8/26/2019Boston Partners29,000$0.92M0.0%-97.7%0.010%
8/23/2019Treasurer of the State of North Carolina147,518$4.68M0.0%+4.4%0.051%
8/23/2019Mackenzie Financial Corp41,281$1.31M0.0%+15.9%0.014%
8/23/2019BlackRock Inc.18,904,848$599.85M0.0%-12.1%6.590%
8/22/2019Natixis909,994$28.87M0.2%+6,554.9%0.317%
8/22/2019Hodges Capital Management Inc.48,675$1.54M0.2%+1.5%0.017%
8/21/2019Transamerica Financial Advisors Inc.7,848$0.25M0.1%N/A0.003%
8/20/2019Barings LLC8,304$0.26M0.0%+31.5%0.003%
8/17/2019Kovitz Investment Group Partners LLC171,816$5.45M0.2%-2.2%0.059%
8/17/2019Maverick Capital Ltd.185,420$5.88M0.1%+12.2%0.064%
8/17/2019Magnetar Financial LLC28,842$0.92M0.0%N/A0.010%
8/17/2019Prudential PLC497,215$15.91M0.0%+15.2%0.171%
8/17/2019TCTC Holdings LLC205,611$6.52M0.4%-4.2%0.071%
8/17/2019Verition Fund Management LLC24,657$0.78M0.0%-17.5%0.008%
8/17/2019Ladenburg Thalmann Financial Services Inc.28,652$0.91M0.0%+116.8%0.010%
8/16/2019First Manhattan Co.16,582$0.53M0.0%-12.1%0.006%
8/16/2019Eaton Vance Management459,846$14.71M0.0%-46.4%0.158%
8/16/2019Amundi Pioneer Asset Management Inc.809,543$25.69M0.0%+72.4%0.279%
8/16/2019United Services Automobile Association281,085$8.92M0.0%+175.2%0.097%
8/15/2019Mutual Advisors LLC12,268$0.39M0.1%N/A0.004%
8/15/2019California Public Employees Retirement System654,551$20.77M0.0%-0.4%0.226%
8/15/2019Waddell & Reed Financial Inc.992,919$31.51M0.1%-9.1%0.342%
8/15/2019Zacks Investment Management879,183$27.90M0.6%N/A0.303%
8/15/2019Pictet Asset Management Ltd.144,884$4.60M0.0%-0.8%0.050%
8/15/2019Stonebridge Capital Advisors LLC1,908$61K0.0%N/A0.001%
8/15/2019Schroder Investment Management Group34,909$1.11M0.0%N/A0.012%
8/15/2019Advisors Capital Management LLC19,914$0.63M0.0%N/A0.007%
8/15/2019Nuveen Asset Management LLC2,790,642$88.55M0.0%+39,001.1%0.962%
8/15/2019Andra AP fonden221,600$7.03M0.2%+49.2%0.076%
8/15/2019Price T Rowe Associates Inc. MD20,995,907$666.20M0.1%-4.3%7.236%
8/15/2019Greylin Investment Mangement Inc.15,775$0.50M0.1%-84.9%0.005%
8/15/2019Victory Capital Management Inc.355,077$11.27M0.0%+3.5%0.122%
8/15/2019UBS Asset Management Americas Inc.1,105,527$35.08M0.0%-7.7%0.381%
8/15/2019Neo Ivy Capital Management22,875$0.73M0.4%N/A0.008%
8/15/2019CSat Investment Advisory L.P.1,827$58K0.0%+106.7%0.001%
8/14/2019Cubist Systematic Strategies LLC19,429$0.62M0.0%-85.6%0.007%
8/14/2019Point72 Asset Management L.P.44,061$1.40M0.0%-78.3%0.015%
8/14/2019California State Teachers Retirement System496,150$15.74M0.0%+2.0%0.171%
8/14/2019Morgan Stanley449,505$14.26M0.0%+56.6%0.155%
8/14/2019AQR Capital Management LLC370,537$11.61M0.0%-87.8%0.128%
8/14/2019Man Group plc102,088$3.24M0.0%-51.8%0.035%
8/14/2019Bank of America Corp DE2,957,068$93.83M0.0%+24.8%1.019%
8/14/2019Balyasny Asset Management LLC747,637$23.72M0.2%+987.8%0.258%
8/14/2019Kempen Capital Management N.V.698,953$22.18M1.9%+17.3%0.241%
8/14/2019Putnam Investments LLC81,742$2.59M0.0%+1.5%0.028%
8/14/2019Centerstone Investors LLC175,726$5.58M3.5%+29.0%0.061%
8/14/2019Mackenzie Financial Corp41,281$1.31M0.0%+15.9%0.014%
8/14/2019Invesco Ltd.3,085,515$97.90M0.0%+27.3%1.063%
8/14/2019Vanguard Group Inc.32,378,213$1.03B0.0%+0.1%11.160%
8/14/2019SRB Corp16,222$0.52M0.0%-20.4%0.006%
8/14/2019Ellington Management Group LLC231,900$7.36M1.3%N/A0.080%
8/14/2019ETF Managers Group LLC5,665$0.18M0.0%+104.9%0.002%
8/14/2019AMP Capital Investors Ltd127,728$3.96M0.0%-54.0%0.044%
8/14/2019Coatue Management LLC10,396$0.33M0.0%N/A0.004%
8/14/2019Holocene Advisors LP979,960$31.09M0.4%+1,872.8%0.338%
8/14/2019National Pension Service405,125$12.86M0.0%+6.5%0.140%
8/14/2019Rampart Investment Management Company LLC6,901$0.22M0.0%-20.6%0.002%
8/14/2019Asset Management One Co. Ltd.148,930$4.73M0.0%-9.1%0.051%
8/13/2019NumerixS Investment Technologies Inc1,591$50K0.0%N/A0.001%
8/13/2019SVA Wealth Management LLC14,955$0.48M0.0%N/A0.005%
8/13/2019BlackRock Inc.18,904,848$599.85M0.0%-12.1%6.516%
8/13/2019Nomura Asset Management Co. Ltd.56,116$1.78M0.0%-54.0%0.019%
8/13/2019Dana Investment Advisors Inc.9,665$0.31M0.0%-83.9%0.003%
8/13/2019US Bancorp DE20,820$0.66M0.0%-9.0%0.007%
8/13/2019HighTower Advisors LLC70,506$2.24M0.0%-3.1%0.024%
8/13/2019AXA8,836$0.28M0.0%-27.9%0.003%
8/13/2019Pinebridge Investments L.P.1,384$44K0.0%-96.7%0.000%
8/13/2019United Capital Financial Advisers LLC18,793$0.60M0.0%-3.1%0.006%
8/13/2019Bank of Nova Scotia813,798$25.82M0.1%+2.1%0.280%
8/13/2019Castleark Management LLC33,490$1.06M0.0%N/A0.012%
8/13/2019APG Asset Management N.V.404,857$11.28M0.0%+3.1%0.140%
8/13/2019Parametric Portfolio Associates LLC734,117$23.29M0.0%-19.9%0.253%
8/13/2019MML Investors Services LLC26,925$0.85M0.0%+100.1%0.009%
8/13/2019Impax Asset Management Group plc236,751$7.51M0.1%+47.3%0.082%
8/13/2019Haverford Trust Co.663,578$21.06M0.4%+7.5%0.229%
8/13/2019Natixis909,994$28.87M0.2%+6,554.9%0.314%
8/13/2019Seeyond14,470$0.46M0.0%-18.0%0.005%
8/13/2019Pictet Asset Management Ltd.144,884$4.60M0.0%-0.8%0.050%
8/13/2019Cibc World Markets Corp50,420$1.60M0.0%-38.9%0.017%
8/13/2019South Dakota Investment Council563,090$17.87M0.4%+24.5%0.194%
8/13/2019Commonwealth Bank of Australia30,639$0.97M0.0%-3.6%0.011%
8/13/2019Northern Trust Corp3,587,374$113.83M0.0%+0.9%1.236%
8/13/2019Canada Pension Plan Investment Board6,731$0.21M0.0%-61.8%0.002%
8/13/2019Alexandria Capital LLC42,173$1.34M0.2%-3.0%0.015%
8/12/2019King Luther Capital Management Corp569,355$18.07M0.1%+88.9%0.196%
8/12/2019Public Employees Retirement System of Ohio115,967$3.68M0.0%+7.6%0.040%
8/12/2019Pacer Advisors Inc.74,521$2.37M0.1%+14.1%0.026%
8/12/2019Cadence Capital Management LLC11,150$0.35M0.0%-22.1%0.004%
8/12/2019Renaissance Technologies LLC631,400$20.03M0.0%+138.7%0.218%
8/12/2019Pitcairn Co.10,627$0.34M0.0%N/A0.004%
8/12/2019Robinson Value Management Ltd.26,682$0.85M0.8%N/A0.009%
8/12/2019Crawford Investment Counsel Inc.23,503$0.75M0.0%+12.7%0.008%
8/12/2019Foresters Investment Management Company Inc.317,161$10.06M0.2%-67.7%0.109%
8/12/2019First Allied Advisory Services Inc.151,029$4.78M0.2%+1,771.5%0.052%
8/12/2019Bank of New York Mellon Corp4,440,485$140.90M0.0%-19.0%1.530%
8/12/2019Quantamental Technologies LLC20,334$0.65M0.2%N/A0.007%
8/12/2019M&T Bank Corp48,248$1.53M0.0%-31.5%0.017%
(Data available from 1/1/2016 forward)
This page was last updated on 9/22/2019 by MarketBeat.com Staff

Featured Article: What is channel trading?

Enter your email address below to receive a concise daily summary of analysts' upgrades, downgrades and new coverage with MarketBeat.com's FREE daily email newsletter.

Yahoo Gemini Pixel